createdAt,value
2023-12-21T00:02:13.242Z,7.90
2023-12-21T00:04:40.019Z,8.00
2023-12-21T00:07:06.877Z,8.00
2023-12-21T00:09:33.613Z,8.00
2023-12-21T00:12:00.254Z,8.00
2023-12-21T00:14:31.075Z,8.10
2023-12-21T00:16:58.622Z,8.10
2023-12-21T00:19:25.441Z,8.10
2023-12-21T00:21:52.198Z,8.10
2023-12-21T00:24:18.893Z,8.00
2023-12-21T00:26:45.549Z,8.00
2023-12-21T00:29:12.256Z,8.00
2023-12-21T00:31:38.941Z,8.00
2023-12-21T00:34:06.279Z,8.00
2023-12-21T00:36:33.073Z,8.00
2023-12-21T00:38:59.832Z,8.00
2023-12-21T00:41:26.544Z,8.00
2023-12-21T00:43:53.233Z,8.00
2023-12-21T00:46:19.895Z,8.00
2023-12-21T00:48:46.656Z,8.00
2023-12-21T00:51:13.354Z,8.00
2023-12-21T00:53:40.000Z,8.00
2023-12-21T00:56:06.699Z,8.00
2023-12-21T00:58:33.393Z,8.00
2023-12-21T01:01:00.364Z,8.00
2023-12-21T01:03:27.184Z,8.00
2023-12-21T01:05:53.892Z,8.00
2023-12-21T01:08:20.561Z,8.00
2023-12-21T01:10:47.214Z,8.00
2023-12-21T01:13:13.913Z,8.00
2023-12-21T01:15:40.548Z,8.00
2023-12-21T01:18:07.357Z,8.10
2023-12-21T01:20:34.696Z,8.10
2023-12-21T01:23:01.360Z,8.10
2023-12-21T01:25:28.097Z,8.10
2023-12-21T01:27:54.836Z,8.00
2023-12-21T01:30:22.950Z,8.00
2023-12-21T01:32:49.797Z,8.00
2023-12-21T01:35:16.590Z,8.00
2023-12-21T01:37:43.357Z,8.00
2023-12-21T01:40:10.395Z,8.00
2023-12-21T01:42:37.058Z,8.00
2023-12-21T01:45:03.933Z,7.90
2023-12-21T01:47:30.594Z,7.90
2023-12-21T01:49:57.314Z,7.90
2023-12-21T01:52:24.036Z,7.90
2023-12-21T01:54:50.742Z,8.00
2023-12-21T01:57:17.503Z,8.00
2023-12-21T01:59:44.149Z,8.00
2023-12-21T02:02:10.873Z,8.10
2023-12-21T02:04:37.636Z,8.10
2023-12-21T02:07:04.530Z,8.20
2023-12-21T02:09:31.165Z,8.10
2023-12-21T02:11:57.822Z,8.10
2023-12-21T02:14:24.476Z,8.10
2023-12-21T02:16:58.284Z,8.10
2023-12-21T02:19:25.049Z,8.10
2023-12-21T02:21:52.009Z,8.10
2023-12-21T02:24:18.846Z,8.20
2023-12-21T02:26:45.644Z,8.10
2023-12-21T02:29:12.340Z,8.10
2023-12-21T02:31:39.065Z,8.00
2023-12-21T02:34:10.353Z,8.00
2023-12-21T02:36:37.138Z,8.00
2023-12-21T02:39:03.806Z,8.00
2023-12-21T02:41:30.538Z,8.10
2023-12-21T02:43:57.224Z,8.10
2023-12-21T02:46:25.888Z,8.10
2023-12-21T02:48:55.521Z,8.10
2023-12-21T02:51:22.229Z,8.10
2023-12-21T02:53:48.910Z,8.10
2023-12-21T02:56:15.575Z,8.10
2023-12-21T02:58:42.406Z,8.10
2023-12-21T03:01:09.192Z,8.10
2023-12-21T03:03:36.043Z,8.10
2023-12-21T03:06:02.758Z,8.10
2023-12-21T03:08:29.775Z,8.10
2023-12-21T03:10:56.418Z,8.10
2023-12-21T03:13:23.209Z,8.10
2023-12-21T03:15:50.894Z,8.00
2023-12-21T03:18:17.643Z,8.00
2023-12-21T03:20:44.325Z,8.00
2023-12-21T03:23:10.939Z,8.10
2023-12-21T03:25:37.840Z,8.10
2023-12-21T03:28:06.940Z,8.10
2023-12-21T03:30:33.644Z,8.10
2023-12-21T03:33:00.355Z,8.10
2023-12-21T03:35:27.082Z,8.20
2023-12-21T03:37:53.726Z,8.20
2023-12-21T03:40:20.363Z,8.20
2023-12-21T03:42:50.858Z,8.30
2023-12-21T03:45:17.635Z,8.30
2023-12-21T03:47:44.331Z,8.30
2023-12-21T03:50:11.101Z,8.30
2023-12-21T03:52:37.951Z,8.30
2023-12-21T03:55:05.388Z,8.40
2023-12-21T03:57:32.088Z,8.40
2023-12-21T03:59:58.890Z,8.40
2023-12-21T04:02:25.565Z,8.40
2023-12-21T04:04:52.282Z,8.50
2023-12-21T04:07:18.997Z,8.50
2023-12-21T04:09:45.657Z,8.50
2023-12-21T04:12:12.298Z,8.50
2023-12-21T04:14:38.929Z,8.50
2023-12-21T04:17:05.558Z,8.40
2023-12-21T04:19:32.215Z,8.40
2023-12-21T04:21:58.964Z,8.40
2023-12-21T04:24:25.607Z,8.40
2023-12-21T04:26:52.365Z,8.30
2023-12-21T04:29:19.063Z,8.30
2023-12-21T04:31:46.254Z,8.30
2023-12-21T04:34:13.134Z,8.40
2023-12-21T04:36:39.865Z,8.40
2023-12-21T04:39:06.553Z,8.40
2023-12-21T04:41:33.233Z,8.40
2023-12-21T04:43:59.893Z,8.50
2023-12-21T04:46:26.565Z,8.50
2023-12-21T04:48:53.309Z,8.50
2023-12-21T04:51:20.024Z,8.50
2023-12-21T04:53:46.679Z,8.60
2023-12-21T04:56:13.400Z,8.60
2023-12-21T04:58:41.815Z,8.60
2023-12-21T05:01:08.714Z,8.60
2023-12-21T05:03:35.512Z,8.60
2023-12-21T05:06:03.013Z,8.60
2023-12-21T05:08:30.130Z,8.60
2023-12-21T05:10:56.762Z,8.60
2023-12-21T05:13:23.422Z,8.60
2023-12-21T05:15:50.031Z,8.60
2023-12-21T05:18:16.786Z,8.60
2023-12-21T05:20:43.488Z,8.60
2023-12-21T05:23:10.153Z,8.60
2023-12-21T05:25:36.909Z,8.60
2023-12-21T05:28:03.729Z,8.60
2023-12-21T05:30:30.475Z,8.60
2023-12-21T05:32:57.156Z,8.50
2023-12-21T05:35:23.887Z,8.50
2023-12-21T05:37:50.587Z,8.60
2023-12-21T05:40:17.660Z,8.60
2023-12-21T05:42:44.553Z,8.50
2023-12-21T05:45:11.389Z,8.50
2023-12-21T05:47:38.067Z,8.50
2023-12-21T05:50:05.939Z,8.50
2023-12-21T05:52:32.882Z,8.50
2023-12-21T05:54:59.584Z,8.50
2023-12-21T05:57:26.388Z,8.40
2023-12-21T05:59:53.598Z,8.40
2023-12-21T06:02:20.423Z,8.40
2023-12-21T06:04:47.221Z,8.40
2023-12-21T06:07:14.043Z,8.50
2023-12-21T06:09:40.704Z,8.50
2023-12-21T06:12:07.829Z,8.50
2023-12-21T06:14:34.613Z,8.50
2023-12-21T06:17:01.398Z,8.50
2023-12-21T06:19:28.374Z,8.50
2023-12-21T06:21:55.272Z,8.50
2023-12-21T06:24:22.057Z,8.60
2023-12-21T06:26:48.721Z,8.60
2023-12-21T06:29:15.406Z,8.60
2023-12-21T06:31:42.219Z,8.60
2023-12-21T06:34:09.069Z,8.60
2023-12-21T06:36:35.852Z,8.60
2023-12-21T06:39:02.627Z,8.60
2023-12-21T06:41:29.730Z,8.70
2023-12-21T06:43:56.395Z,8.70
2023-12-21T06:46:23.098Z,8.70
2023-12-21T06:48:49.836Z,8.70
2023-12-21T06:51:17.105Z,8.80
2023-12-21T06:53:43.759Z,8.80
2023-12-21T06:56:23.567Z,8.90
2023-12-21T06:58:57.218Z,8.90
2023-12-21T07:01:27.627Z,8.90
2023-12-21T07:03:55.371Z,8.90
2023-12-21T07:06:22.019Z,8.80
2023-12-21T07:08:48.743Z,8.80
2023-12-21T07:11:15.497Z,8.80
2023-12-21T07:13:42.218Z,8.70
2023-12-21T07:16:10.155Z,8.80
2023-12-21T07:18:37.006Z,8.80
2023-12-21T07:21:07.121Z,8.80
2023-12-21T07:23:33.916Z,8.80
2023-12-21T07:26:00.653Z,8.90
2023-12-21T07:28:29.534Z,8.90
2023-12-21T07:30:56.780Z,8.90
2023-12-21T07:33:23.777Z,8.90
2023-12-21T07:35:50.584Z,8.80
2023-12-21T07:38:17.274Z,8.80
2023-12-21T07:40:45.126Z,8.80
2023-12-21T07:43:11.970Z,8.80
2023-12-21T07:45:38.659Z,8.80
2023-12-21T07:48:05.793Z,8.80
2023-12-21T07:50:32.482Z,8.80
2023-12-21T07:52:59.398Z,8.90
2023-12-21T07:55:26.233Z,8.80
2023-12-21T07:57:53.153Z,8.80
2023-12-21T08:00:19.946Z,8.80
2023-12-21T08:02:46.981Z,8.80
2023-12-21T08:05:14.359Z,8.80
2023-12-21T08:07:41.510Z,8.80
2023-12-21T08:10:08.878Z,8.80
2023-12-21T08:12:38.759Z,8.90
2023-12-21T08:15:05.855Z,8.80
2023-12-21T08:17:32.943Z,8.80
2023-12-21T08:19:59.812Z,8.90
2023-12-21T08:22:27.017Z,8.90
2023-12-21T08:24:53.909Z,8.90
2023-12-21T08:27:20.921Z,8.90
2023-12-21T08:29:47.630Z,8.90
2023-12-21T08:32:15.146Z,8.90
2023-12-21T08:34:42.217Z,8.90
2023-12-21T08:37:09.108Z,8.90
2023-12-21T08:39:35.819Z,8.90
2023-12-21T08:42:03.667Z,8.90
2023-12-21T08:44:32.738Z,9.00
2023-12-21T08:47:01.027Z,9.00
2023-12-21T08:49:28.202Z,9.10
2023-12-21T08:51:55.233Z,9.10
2023-12-21T08:54:22.542Z,9.10
2023-12-21T08:56:51.912Z,9.20
2023-12-21T08:59:19.207Z,9.20
2023-12-21T09:01:46.048Z,9.20
2023-12-21T09:04:12.865Z,9.20
2023-12-21T09:06:40.150Z,9.20
2023-12-21T09:09:06.847Z,9.20
2023-12-21T09:11:33.539Z,9.20
2023-12-21T09:14:00.270Z,9.20
2023-12-21T09:16:27.015Z,9.20
2023-12-21T09:18:53.903Z,9.20
2023-12-21T09:21:20.677Z,9.20
2023-12-21T09:23:47.850Z,9.20
2023-12-21T09:26:14.797Z,9.20
2023-12-21T09:28:42.875Z,9.30
2023-12-21T09:31:10.174Z,9.30
2023-12-21T09:33:38.228Z,9.30
2023-12-21T09:36:05.547Z,9.30
2023-12-21T09:38:32.929Z,9.30
2023-12-21T09:41:00.510Z,9.30
2023-12-21T09:43:28.725Z,9.30
2023-12-21T09:45:56.727Z,9.40
2023-12-21T09:48:23.679Z,9.30
2023-12-21T09:50:51.349Z,9.30
2023-12-21T09:53:18.353Z,9.20
2023-12-21T09:55:45.180Z,9.20
2023-12-21T09:58:14.795Z,9.20
2023-12-21T10:00:41.790Z,9.30
2023-12-21T10:03:08.755Z,9.30
2023-12-21T10:05:36.602Z,9.30
2023-12-21T10:08:03.528Z,9.30
2023-12-21T10:10:30.229Z,9.30
2023-12-21T10:12:57.085Z,9.30
2023-12-21T10:15:23.761Z,9.30
2023-12-21T10:17:50.728Z,9.40
2023-12-21T10:20:17.856Z,9.40
2023-12-21T10:22:44.997Z,9.40
2023-12-21T10:25:12.100Z,9.50
2023-12-21T10:27:38.746Z,9.50
2023-12-21T10:30:05.948Z,9.50
2023-12-21T10:32:33.326Z,9.50
2023-12-21T10:35:00.746Z,9.50
2023-12-21T10:37:28.040Z,9.50
2023-12-21T10:39:57.298Z,9.50
2023-12-21T10:42:24.223Z,9.50
2023-12-21T10:44:51.487Z,9.50
2023-12-21T10:47:18.322Z,9.50
2023-12-21T10:49:45.333Z,9.50
2023-12-21T10:52:13.054Z,9.50
2023-12-21T10:54:43.272Z,9.60
2023-12-21T10:57:10.261Z,9.60
2023-12-21T10:59:36.974Z,9.60
2023-12-21T11:02:04.272Z,9.60
2023-12-21T11:04:31.018Z,9.60
2023-12-21T11:06:58.107Z,9.60
2023-12-21T11:09:26.696Z,9.60
2023-12-21T11:11:58.302Z,9.60
2023-12-21T11:14:25.543Z,9.60
2023-12-21T11:16:55.238Z,9.70
2023-12-21T11:19:26.889Z,9.70
2023-12-21T11:21:54.901Z,9.70
2023-12-21T11:24:22.593Z,9.60
2023-12-21T11:26:50.060Z,9.70
2023-12-21T11:29:27.420Z,9.70
2023-12-21T11:31:54.339Z,9.70
2023-12-21T11:34:25.765Z,9.80
2023-12-21T11:36:59.517Z,9.80
2023-12-21T11:39:26.179Z,9.80
2023-12-21T11:41:59.894Z,9.80
2023-12-21T11:44:36.987Z,9.80
2023-12-21T11:47:07.004Z,9.80
2023-12-21T11:49:33.900Z,9.90
2023-12-21T11:52:01.184Z,9.80
2023-12-21T11:54:27.866Z,9.90
2023-12-21T11:56:55.650Z,9.90
2023-12-21T11:59:28.909Z,9.90
2023-12-21T12:01:55.740Z,9.90
2023-12-21T12:04:22.606Z,9.90
2023-12-21T12:06:51.074Z,9.90
2023-12-21T12:09:21.006Z,10.00
2023-12-21T12:11:47.836Z,10.00
2023-12-21T12:14:14.558Z,10.00
2023-12-21T12:16:41.445Z,10.10
2023-12-21T12:19:12.405Z,10.00
2023-12-21T12:21:39.223Z,10.10
2023-12-21T12:24:08.860Z,10.00
2023-12-21T12:26:35.821Z,10.00
2023-12-21T12:29:02.551Z,10.00
2023-12-21T12:31:29.418Z,10.00
2023-12-21T12:33:56.618Z,10.00
2023-12-21T12:36:23.370Z,10.00
2023-12-21T12:38:51.728Z,10.00
2023-12-21T12:41:21.704Z,10.10
2023-12-21T12:43:48.499Z,10.10
2023-12-21T12:46:15.869Z,10.10
2023-12-21T12:48:42.724Z,10.10
2023-12-21T12:51:12.948Z,10.10
2023-12-21T12:53:43.097Z,10.10
2023-12-21T12:56:09.805Z,10.00
2023-12-21T12:58:49.250Z,10.00
2023-12-21T13:01:26.331Z,10.00
2023-12-21T13:03:53.694Z,10.10
2023-12-21T13:06:20.836Z,10.00
2023-12-21T13:08:47.846Z,10.00
2023-12-21T13:11:17.009Z,10.10
2023-12-21T13:13:43.926Z,10.10
2023-12-21T13:16:10.690Z,10.00
2023-12-21T13:18:38.213Z,10.00
2023-12-21T13:21:05.186Z,10.00
2023-12-21T13:23:32.605Z,10.00
2023-12-21T13:25:59.589Z,10.00
2023-12-21T13:28:26.697Z,10.00
2023-12-21T13:30:53.922Z,9.90
2023-12-21T13:33:20.800Z,9.90
2023-12-21T13:35:47.994Z,9.90
2023-12-21T13:38:16.918Z,9.90
2023-12-21T13:40:44.089Z,9.90
2023-12-21T13:43:11.538Z,10.00
2023-12-21T13:45:38.236Z,10.00
2023-12-21T13:48:06.593Z,10.00
2023-12-21T13:50:34.304Z,10.00
2023-12-21T13:53:04.343Z,10.00
2023-12-21T13:55:31.518Z,10.00
2023-12-21T13:57:58.225Z,10.10
2023-12-21T14:00:25.530Z,10.00
2023-12-21T14:02:52.351Z,10.00
2023-12-21T14:05:19.300Z,10.00
2023-12-21T14:07:46.959Z,10.00
2023-12-21T14:10:14.149Z,10.10
2023-12-21T14:12:40.887Z,10.10
2023-12-21T14:15:08.878Z,10.10
2023-12-21T14:17:35.927Z,10.10
2023-12-21T14:20:03.272Z,10.10
2023-12-21T14:22:30.082Z,10.10
2023-12-21T14:24:56.751Z,10.10
2023-12-21T14:27:23.793Z,10.10
2023-12-21T14:29:50.467Z,10.10
2023-12-21T14:32:18.988Z,10.10
2023-12-21T14:34:45.757Z,10.10
2023-12-21T14:37:14.662Z,10.10
2023-12-21T14:39:41.643Z,10.20
2023-12-21T14:42:08.343Z,10.10
2023-12-21T14:44:37.496Z,10.20
2023-12-21T14:47:04.642Z,10.20
2023-12-21T14:49:31.424Z,10.20
2023-12-21T14:51:58.114Z,10.20
2023-12-21T14:54:24.755Z,10.30
2023-12-21T14:56:51.662Z,10.30
2023-12-21T14:59:18.342Z,10.30
2023-12-21T15:01:49.243Z,10.30
2023-12-21T15:04:16.224Z,10.40
2023-12-21T15:06:43.058Z,10.40
2023-12-21T15:09:10.244Z,10.40
2023-12-21T15:11:37.046Z,10.40
2023-12-21T15:14:04.889Z,10.40
2023-12-21T15:16:34.130Z,10.50
2023-12-21T15:19:01.433Z,10.50
2023-12-21T15:21:28.444Z,10.60
2023-12-21T15:23:55.259Z,10.60
2023-12-21T15:26:22.191Z,10.60
2023-12-21T15:28:48.884Z,10.60
2023-12-21T15:31:17.122Z,10.60
2023-12-21T15:33:43.896Z,10.70
2023-12-21T15:36:16.810Z,10.70
2023-12-21T15:38:44.064Z,10.70
2023-12-21T15:41:20.489Z,10.70
2023-12-21T15:43:48.015Z,10.70
2023-12-21T15:46:17.355Z,10.80
2023-12-21T15:48:44.125Z,10.80
2023-12-21T15:51:10.879Z,10.80
2023-12-21T15:53:37.688Z,10.80
2023-12-21T15:56:04.632Z,10.80
2023-12-21T15:58:33.146Z,10.80
2023-12-21T16:01:02.124Z,10.90
2023-12-21T16:03:28.796Z,10.90
2023-12-21T16:05:55.534Z,10.90
2023-12-21T16:08:23.385Z,10.90
2023-12-21T16:10:50.229Z,10.90
2023-12-21T16:13:16.997Z,11.00
2023-12-21T16:15:43.688Z,11.00
2023-12-21T16:18:10.408Z,11.00
2023-12-21T16:20:37.154Z,11.00
2023-12-21T16:23:04.022Z,11.10
2023-12-21T16:25:31.039Z,11.10
2023-12-21T16:27:57.728Z,11.10
2023-12-21T16:30:24.406Z,11.10
2023-12-21T16:32:54.245Z,11.10
2023-12-21T16:35:21.728Z,11.10
2023-12-21T16:37:48.565Z,11.10
2023-12-21T16:40:20.937Z,11.10
2023-12-21T16:42:47.775Z,11.20
2023-12-21T16:45:14.710Z,11.20
2023-12-21T16:47:41.851Z,11.20
2023-12-21T16:50:09.023Z,11.20
2023-12-21T16:52:35.824Z,11.30
2023-12-21T16:55:04.005Z,11.20
2023-12-21T16:57:30.675Z,11.30
2023-12-21T16:59:57.338Z,11.30
2023-12-21T17:02:25.294Z,11.30
2023-12-21T17:04:52.693Z,11.30
2023-12-21T17:07:20.964Z,11.30
2023-12-21T17:09:47.666Z,11.30
2023-12-21T17:12:14.390Z,11.40
2023-12-21T17:14:41.045Z,11.40
2023-12-21T17:17:07.975Z,11.40
2023-12-21T17:19:34.835Z,11.40
2023-12-21T17:22:02.667Z,11.30
2023-12-21T17:24:29.373Z,11.30
2023-12-21T17:26:56.093Z,11.30
2023-12-21T17:29:22.729Z,11.40
2023-12-21T17:31:49.480Z,11.30
2023-12-21T17:34:20.201Z,11.30
2023-12-21T17:36:47.255Z,11.30
2023-12-21T17:39:13.960Z,11.40
2023-12-21T17:41:40.603Z,11.40
2023-12-21T17:44:07.616Z,11.40
2023-12-21T17:46:34.263Z,11.40
2023-12-21T17:49:01.198Z,11.40
2023-12-21T17:51:27.986Z,11.40
2023-12-21T17:53:54.623Z,11.50
2023-12-21T17:56:21.270Z,11.50
2023-12-21T17:58:48.129Z,11.50
2023-12-21T18:01:15.137Z,11.50
2023-12-21T18:03:41.946Z,11.50
2023-12-21T18:06:08.606Z,11.50
2023-12-21T18:08:35.238Z,11.50
2023-12-21T18:11:02.033Z,11.40
2023-12-21T18:13:28.896Z,11.50
2023-12-21T18:15:55.579Z,11.50
2023-12-21T18:18:23.184Z,11.40
2023-12-21T18:20:50.498Z,11.50
2023-12-21T18:23:17.317Z,11.50
2023-12-21T18:25:46.034Z,11.50
2023-12-21T18:28:13.510Z,11.50
2023-12-21T18:30:40.152Z,11.50
2023-12-21T18:33:06.876Z,11.50
2023-12-21T18:35:33.635Z,11.50
2023-12-21T18:38:00.373Z,11.50
2023-12-21T18:40:27.256Z,11.40
2023-12-21T18:42:54.089Z,11.40
2023-12-21T18:45:20.812Z,11.40
2023-12-21T18:47:48.388Z,11.40
2023-12-21T18:50:15.339Z,11.40
2023-12-21T18:52:42.119Z,11.30
2023-12-21T18:55:09.162Z,11.30
2023-12-21T18:57:35.916Z,11.30
2023-12-21T19:00:02.579Z,11.30
2023-12-21T19:02:29.242Z,11.30
2023-12-21T19:04:56.088Z,11.30
2023-12-21T19:07:22.974Z,11.30
2023-12-21T19:09:50.050Z,11.20
2023-12-21T19:12:16.701Z,11.20
2023-12-21T19:14:43.598Z,11.20
2023-12-21T19:17:10.259Z,11.20
2023-12-21T19:19:37.003Z,11.20
2023-12-21T19:22:03.809Z,11.20
2023-12-21T19:24:30.836Z,11.20
2023-12-21T19:26:57.699Z,11.20
2023-12-21T19:29:24.657Z,11.20
2023-12-21T19:31:51.356Z,11.20
2023-12-21T19:34:18.886Z,11.20
2023-12-21T19:36:45.615Z,11.20
2023-12-21T19:39:12.316Z,11.20
2023-12-21T19:41:39.008Z,11.20
2023-12-21T19:44:05.636Z,11.30
2023-12-21T19:46:32.354Z,11.20
2023-12-21T19:48:59.141Z,11.20
2023-12-21T19:51:25.879Z,11.20
2023-12-21T19:53:52.545Z,11.20
2023-12-21T19:56:19.589Z,11.10
2023-12-21T19:58:50.217Z,11.00
2023-12-21T20:01:17.074Z,10.90
2023-12-21T20:03:43.841Z,10.70
2023-12-21T20:06:10.532Z,10.70
2023-12-21T20:08:37.215Z,10.60
2023-12-21T20:11:04.152Z,10.50
2023-12-21T20:13:30.932Z,10.50
2023-12-21T20:15:57.658Z,10.50
2023-12-21T20:18:24.764Z,10.40
2023-12-21T20:20:51.607Z,10.40
2023-12-21T20:23:18.331Z,10.30
2023-12-21T20:25:45.173Z,10.20
2023-12-21T20:28:12.033Z,10.20
2023-12-21T20:30:38.706Z,10.20
2023-12-21T20:33:09.336Z,10.10
2023-12-21T20:35:37.509Z,10.10
2023-12-21T20:38:05.133Z,10.10
2023-12-21T20:40:37.672Z,10.10
2023-12-21T20:43:05.628Z,10.10
2023-12-21T20:45:32.660Z,10.10
2023-12-21T20:47:59.709Z,10.00
2023-12-21T20:50:26.460Z,10.00
2023-12-21T20:52:54.555Z,10.00
2023-12-21T20:55:23.921Z,10.00
2023-12-21T20:57:53.701Z,9.90
2023-12-21T21:00:20.457Z,9.90
2023-12-21T21:02:47.139Z,9.80
2023-12-21T21:05:14.405Z,9.70
2023-12-21T21:07:41.801Z,9.60
2023-12-21T21:10:09.089Z,9.60
2023-12-21T21:12:35.787Z,9.50
2023-12-21T21:15:02.508Z,9.40
2023-12-21T21:17:29.168Z,9.40
2023-12-21T21:19:58.843Z,9.40
2023-12-21T21:22:26.028Z,9.30
2023-12-21T21:24:53.233Z,9.30
2023-12-21T21:27:19.855Z,9.20
2023-12-21T21:29:46.665Z,9.20
2023-12-21T21:32:15.299Z,9.20
2023-12-21T21:34:41.964Z,9.20
2023-12-21T21:37:11.415Z,9.20
2023-12-21T21:39:39.591Z,9.20
2023-12-21T21:42:07.345Z,9.20
2023-12-21T21:44:34.327Z,9.20
2023-12-21T21:47:01.993Z,9.20
2023-12-21T21:49:29.085Z,9.20
2023-12-21T21:52:00.157Z,9.20
2023-12-21T21:54:28.171Z,9.20
2023-12-21T21:56:56.127Z,9.20
2023-12-21T21:59:23.200Z,9.20
2023-12-21T22:01:50.439Z,9.20
2023-12-21T22:04:17.767Z,9.20
2023-12-21T22:06:45.002Z,9.10
2023-12-21T22:09:12.185Z,9.10
2023-12-21T22:11:40.946Z,9.10
2023-12-21T22:14:07.577Z,9.00
2023-12-21T22:16:34.540Z,9.00
2023-12-21T22:19:01.572Z,9.00
2023-12-21T22:21:30.554Z,9.00
2023-12-21T22:23:57.218Z,9.00
2023-12-21T22:26:23.872Z,9.00
2023-12-21T22:28:50.592Z,9.00
2023-12-21T22:31:17.611Z,8.90
2023-12-21T22:33:44.306Z,9.00
2023-12-21T22:36:12.228Z,8.90
2023-12-21T22:38:39.055Z,9.00
2023-12-21T22:41:07.854Z,8.90
2023-12-21T22:43:42.120Z,9.00
2023-12-21T22:46:10.300Z,9.00
2023-12-21T22:48:37.247Z,9.00
2023-12-21T22:51:04.149Z,9.00
2023-12-21T22:53:32.121Z,9.00
2023-12-21T22:55:58.982Z,9.00
2023-12-21T22:58:26.117Z,9.00
2023-12-21T23:00:52.933Z,8.90
2023-12-21T23:03:19.957Z,8.80
2023-12-21T23:05:46.811Z,8.70
2023-12-21T23:08:13.534Z,8.70
2023-12-21T23:10:44.267Z,8.60
2023-12-21T23:13:18.369Z,8.60
2023-12-21T23:15:48.480Z,8.60
2023-12-21T23:18:15.453Z,8.60
2023-12-21T23:20:42.459Z,8.60
2023-12-21T23:23:09.120Z,8.50
2023-12-21T23:25:36.019Z,8.60
2023-12-21T23:28:02.896Z,8.60
2023-12-21T23:30:29.617Z,8.50
2023-12-21T23:32:56.435Z,8.60
2023-12-21T23:35:25.432Z,8.60
2023-12-21T23:37:52.657Z,8.50
2023-12-21T23:40:19.801Z,8.50
2023-12-21T23:42:46.694Z,8.50
2023-12-21T23:45:13.537Z,8.50
2023-12-21T23:47:40.344Z,8.50
2023-12-21T23:50:07.988Z,8.50
2023-12-21T23:52:34.878Z,8.40
2023-12-21T23:55:01.667Z,8.40
2023-12-21T23:57:28.592Z,8.40
2023-12-21T23:59:55.526Z,8.40
